createdAt,value
2022-12-28T00:01:14.921Z,10.92
2022-12-28T00:03:42.190Z,10.86
2022-12-28T00:06:09.325Z,10.85
2022-12-28T00:08:36.526Z,11.03
2022-12-28T00:11:07.517Z,11.17
2022-12-28T00:13:37.211Z,11.28
2022-12-28T00:16:09.397Z,11.37
2022-12-28T00:18:37.221Z,11.48
2022-12-28T00:21:05.026Z,11.55
2022-12-28T00:23:32.056Z,11.61
2022-12-28T00:26:13.119Z,11.67
2022-12-28T00:28:40.774Z,11.69
2022-12-28T00:31:07.576Z,11.78
2022-12-28T00:33:34.195Z,11.83
2022-12-28T00:36:02.415Z,11.87
2022-12-28T00:38:31.644Z,11.90
2022-12-28T00:40:59.166Z,11.94
2022-12-28T00:43:26.635Z,12.02
2022-12-28T00:45:53.200Z,12.07
2022-12-28T00:48:19.850Z,12.07
2022-12-28T00:50:46.505Z,12.04
2022-12-28T00:53:13.647Z,12.10
2022-12-28T00:55:42.533Z,12.05
2022-12-28T00:58:09.963Z,12.08
2022-12-28T01:00:37.687Z,12.02
2022-12-28T01:03:04.452Z,12.07
2022-12-28T01:05:31.174Z,12.08
2022-12-28T01:07:57.747Z,12.07
2022-12-28T01:10:24.475Z,12.05
2022-12-28T01:12:51.031Z,11.99
2022-12-28T01:15:17.676Z,11.91
2022-12-28T01:17:44.329Z,11.79
2022-12-28T01:20:11.652Z,11.71
2022-12-28T01:22:38.244Z,11.64
2022-12-28T01:25:05.241Z,11.43
2022-12-28T01:27:32.459Z,11.50
2022-12-28T01:29:59.041Z,11.45
2022-12-28T01:32:25.716Z,11.41
2022-12-28T01:34:52.330Z,11.50
2022-12-28T01:37:18.987Z,11.45
2022-12-28T01:39:45.563Z,11.38
2022-12-28T01:42:20.059Z,11.42
2022-12-28T01:44:49.256Z,11.30
2022-12-28T01:47:23.349Z,11.15
2022-12-28T01:49:59.871Z,11.09
2022-12-28T01:52:32.107Z,11.06
2022-12-28T01:55:01.625Z,11.07
2022-12-28T01:57:31.723Z,11.09
2022-12-28T02:00:04.561Z,11.12
2022-12-28T02:02:32.035Z,11.10
2022-12-28T02:05:00.195Z,11.03
2022-12-28T02:07:40.878Z,10.89
2022-12-28T02:10:44.327Z,10.94
2022-12-28T02:12:56.943Z,10.93
2022-12-28T02:15:23.631Z,10.90
2022-12-28T02:17:50.661Z,11.02
2022-12-28T02:20:18.085Z,11.07
2022-12-28T02:22:53.976Z,11.13
2022-12-28T02:25:53.175Z,11.12
2022-12-28T02:28:39.694Z,11.03
2022-12-28T02:31:18.062Z,11.07
2022-12-28T02:34:19.627Z,11.06
2022-12-28T02:37:01.765Z,10.99
2022-12-28T02:39:37.474Z,11.00
2022-12-28T02:42:06.638Z,10.99
2022-12-28T02:44:55.898Z,10.87
2022-12-28T02:47:41.728Z,10.84
2022-12-28T02:50:13.124Z,10.96
2022-12-28T02:53:18.090Z,10.84
2022-12-28T02:56:08.527Z,10.86
2022-12-28T02:58:37.749Z,10.79
2022-12-28T03:01:29.067Z,10.75
2022-12-28T03:04:17.461Z,10.57
2022-12-28T03:07:22.992Z,10.51
2022-12-28T03:10:01.077Z,10.62
2022-12-28T03:12:36.568Z,10.52
2022-12-28T03:15:11.944Z,10.51
2022-12-28T03:18:01.928Z,10.46
2022-12-28T03:20:50.203Z,10.46
2022-12-28T03:23:38.016Z,10.41
2022-12-28T03:26:28.360Z,10.23
2022-12-28T03:29:15.352Z,10.30
2022-12-28T03:31:42.435Z,10.26
2022-12-28T03:34:09.390Z,10.19
2022-12-28T03:36:55.010Z,10.15
2022-12-28T03:39:41.963Z,10.15
2022-12-28T03:42:35.255Z,10.15
2022-12-28T03:45:46.715Z,10.16
2022-12-28T03:48:15.446Z,10.19
2022-12-28T03:50:45.496Z,10.16
2022-12-28T03:53:12.153Z,10.19
2022-12-28T03:55:39.883Z,10.16
2022-12-28T03:58:07.026Z,10.11
2022-12-28T04:00:33.820Z,10.06
2022-12-28T04:03:00.474Z,10.07
2022-12-28T04:05:27.119Z,9.94
2022-12-28T04:07:55.702Z,9.98
2022-12-28T04:10:22.282Z,10.00
2022-12-28T04:12:49.177Z,10.07
2022-12-28T04:15:15.825Z,10.02
2022-12-28T04:17:42.391Z,10.12
2022-12-28T04:20:09.571Z,10.11
2022-12-28T04:22:36.125Z,10.15
2022-12-28T04:25:02.926Z,10.17
2022-12-28T04:27:29.544Z,10.21
2022-12-28T04:29:56.129Z,10.23
2022-12-28T04:32:22.768Z,10.22
2022-12-28T04:34:49.359Z,10.21
2022-12-28T04:37:15.989Z,10.19
2022-12-28T04:39:55.420Z,10.27
2022-12-28T04:42:25.268Z,10.21
2022-12-28T04:44:51.943Z,10.21
2022-12-28T04:47:18.734Z,10.16
2022-12-28T04:49:45.314Z,10.13
2022-12-28T04:52:11.960Z,10.14
2022-12-28T04:54:38.623Z,10.11
2022-12-28T04:57:05.195Z,10.05
2022-12-28T04:59:31.793Z,10.09
2022-12-28T05:01:58.485Z,10.05
2022-12-28T05:04:25.169Z,10.09
2022-12-28T05:06:51.803Z,10.15
2022-12-28T05:09:19.552Z,10.15
2022-12-28T05:11:46.240Z,10.16
2022-12-28T05:14:12.853Z,10.18
2022-12-28T05:16:39.519Z,10.27
2022-12-28T05:19:06.187Z,10.25
2022-12-28T05:21:32.877Z,10.09
2022-12-28T05:23:59.998Z,10.05
2022-12-28T05:26:29.551Z,9.97
2022-12-28T05:28:58.639Z,9.97
2022-12-28T05:31:25.698Z,9.69
2022-12-28T05:33:53.097Z,9.66
2022-12-28T05:36:23.295Z,9.69
2022-12-28T05:38:50.875Z,9.34
2022-12-28T05:41:20.706Z,9.35
2022-12-28T05:43:47.800Z,9.23
2022-12-28T05:46:20.076Z,8.94
2022-12-28T05:48:47.722Z,8.88
2022-12-28T05:51:19.255Z,8.88
2022-12-28T05:53:46.440Z,8.71
2022-12-28T05:56:17.464Z,8.61
2022-12-28T05:58:45.895Z,8.67
2022-12-28T06:01:16.446Z,8.62
2022-12-28T06:03:43.832Z,8.60
2022-12-28T06:06:20.444Z,8.68
2022-12-28T06:08:49.607Z,8.75
2022-12-28T06:11:19.556Z,8.78
2022-12-28T06:13:46.825Z,8.82
2022-12-28T06:16:19.660Z,8.87
2022-12-28T06:18:46.868Z,8.87
2022-12-28T06:21:16.352Z,8.90
2022-12-28T06:23:43.813Z,8.90
2022-12-28T06:26:13.184Z,8.95
2022-12-28T06:28:40.947Z,8.94
2022-12-28T06:31:29.077Z,9.00
2022-12-28T06:33:58.334Z,9.02
2022-12-28T06:36:27.819Z,9.06
2022-12-28T06:38:56.752Z,9.07
2022-12-28T06:41:24.097Z,9.10
2022-12-28T06:43:51.335Z,9.19
2022-12-28T06:46:19.640Z,9.15
2022-12-28T06:48:47.009Z,9.02
2022-12-28T06:51:23.364Z,9.05
2022-12-28T06:53:51.758Z,9.12
2022-12-28T06:56:25.589Z,9.13
2022-12-28T06:58:58.388Z,9.12
2022-12-28T07:01:40.956Z,9.06
2022-12-28T07:04:09.362Z,9.20
2022-12-28T07:06:39.252Z,9.20
2022-12-28T07:09:08.690Z,9.22
2022-12-28T07:11:36.208Z,9.21
2022-12-28T07:14:02.855Z,9.32
2022-12-28T07:19:00.299Z,9.42
2022-12-28T07:21:30.035Z,9.46
2022-12-28T07:23:57.667Z,9.44
2022-12-28T07:26:27.384Z,9.39
2022-12-28T07:28:56.499Z,9.20
2022-12-28T07:31:28.904Z,9.21
2022-12-28T07:33:57.584Z,9.20
2022-12-28T07:36:25.552Z,9.39
2022-12-28T07:38:52.546Z,9.49
2022-12-28T07:41:22.116Z,9.62
2022-12-28T07:43:50.085Z,9.67
2022-12-28T07:46:20.160Z,9.45
2022-12-28T07:48:47.414Z,9.31
2022-12-28T07:51:15.632Z,9.45
2022-12-28T07:53:43.977Z,9.50
2022-12-28T07:56:11.719Z,9.54
2022-12-28T07:58:38.899Z,9.55
2022-12-28T08:01:11.516Z,9.33
2022-12-28T08:03:40.618Z,9.43
2022-12-28T08:06:13.538Z,9.56
2022-12-28T08:08:43.029Z,9.62
2022-12-28T08:11:15.380Z,9.69
2022-12-28T08:13:44.347Z,9.50
2022-12-28T08:16:13.552Z,9.38
2022-12-28T08:18:41.113Z,9.47
2022-12-28T08:21:11.091Z,9.31
2022-12-28T08:23:38.018Z,9.39
2022-12-28T08:26:09.350Z,9.35
2022-12-28T08:28:36.836Z,9.27
2022-12-28T08:31:12.387Z,9.26
2022-12-28T08:33:39.541Z,9.30
2022-12-28T08:36:07.650Z,9.29
2022-12-28T08:38:34.291Z,9.35
2022-12-28T08:41:03.188Z,9.42
2022-12-28T08:43:31.555Z,9.50
2022-12-28T08:46:00.331Z,9.42
2022-12-28T08:48:27.286Z,9.19
2022-12-28T08:50:54.546Z,9.20
2022-12-28T08:53:24.378Z,9.15
2022-12-28T08:55:51.685Z,9.02
2022-12-28T08:58:18.633Z,8.89
2022-12-28T09:00:45.252Z,9.00
2022-12-28T09:03:11.869Z,9.04
2022-12-28T09:05:39.962Z,8.97
2022-12-28T09:08:06.999Z,9.02
2022-12-28T09:10:33.622Z,9.09
2022-12-28T09:13:00.378Z,9.17
2022-12-28T09:15:27.151Z,9.13
2022-12-28T09:17:53.799Z,9.27
2022-12-28T09:20:20.470Z,9.43
2022-12-28T09:22:47.105Z,9.49
2022-12-28T09:25:13.714Z,9.37
2022-12-28T09:27:40.251Z,9.14
2022-12-28T09:30:07.863Z,9.11
2022-12-28T09:32:34.491Z,8.91
2022-12-28T09:35:01.120Z,8.63
2022-12-28T09:37:27.677Z,8.69
2022-12-28T09:39:59.469Z,8.70
2022-12-28T09:42:30.450Z,8.86
2022-12-28T09:45:04.735Z,8.90
2022-12-28T09:47:31.374Z,8.97
2022-12-28T09:50:25.167Z,9.04
2022-12-28T09:53:06.925Z,8.91
2022-12-28T09:55:38.597Z,8.89
2022-12-28T09:58:11.050Z,9.03
2022-12-28T10:00:45.851Z,9.10
2022-12-28T10:03:32.157Z,8.91
2022-12-28T10:05:59.694Z,8.81
2022-12-28T10:08:27.853Z,8.96
2022-12-28T10:10:58.506Z,9.01
2022-12-28T10:16:20.129Z,9.19
2022-12-28T10:18:48.495Z,9.19
2022-12-28T10:21:18.666Z,9.21
2022-12-28T10:24:29.288Z,9.23
2022-12-28T10:26:38.490Z,9.02
2022-12-28T10:29:06.116Z,8.99
2022-12-28T10:31:40.576Z,9.07
2022-12-28T10:34:22.653Z,8.93
2022-12-28T10:36:50.543Z,9.01
2022-12-28T10:39:25.313Z,9.17
2022-12-28T10:41:53.175Z,9.24
2022-12-28T10:44:41.589Z,9.22
2022-12-28T10:47:23.212Z,9.45
2022-12-28T10:52:39.356Z,9.81
2022-12-28T10:55:27.874Z,9.91
2022-12-28T11:00:41.764Z,10.05
2022-12-28T11:03:23.869Z,10.16
2022-12-28T11:05:57.213Z,10.17
2022-12-28T11:08:24.221Z,10.01
2022-12-28T11:10:58.044Z,10.01
2022-12-28T11:13:24.731Z,9.80
2022-12-28T11:15:51.387Z,9.65
2022-12-28T11:18:19.955Z,9.54
2022-12-28T11:20:52.469Z,9.41
2022-12-28T11:23:25.112Z,9.48
2022-12-28T11:25:52.078Z,9.59
2022-12-28T11:28:21.873Z,9.60
2022-12-28T11:30:51.006Z,9.69
2022-12-28T11:33:23.743Z,9.66
2022-12-28T11:35:59.070Z,9.55
2022-12-28T11:38:41.749Z,9.44
2022-12-28T11:41:26.343Z,9.37
2022-12-28T11:43:59.156Z,9.28
2022-12-28T11:46:25.733Z,9.28
2022-12-28T11:48:55.239Z,9.27
2022-12-28T11:51:26.998Z,9.23
2022-12-28T11:53:55.446Z,9.26
2022-12-28T11:56:23.967Z,9.24
2022-12-28T11:58:59.707Z,9.17
2022-12-28T12:01:29.579Z,9.16
2022-12-28T12:03:59.116Z,9.14
2022-12-28T12:06:44.083Z,9.13
2022-12-28T12:09:39.646Z,9.14
2022-12-28T12:12:18.010Z,9.16
2022-12-28T12:15:01.974Z,9.18
2022-12-28T12:17:49.913Z,9.24
2022-12-28T12:20:50.556Z,9.27
2022-12-28T12:23:29.459Z,9.19
2022-12-28T12:25:59.886Z,9.26
2022-12-28T12:28:47.312Z,9.28
2022-12-28T12:31:23.253Z,9.25
2022-12-28T12:33:52.929Z,9.30
2022-12-28T12:36:37.588Z,9.26
2022-12-28T12:39:26.070Z,9.13
2022-12-28T12:42:16.806Z,9.19
2022-12-28T12:44:57.721Z,9.16
2022-12-28T12:47:45.887Z,9.22
2022-12-28T12:50:30.448Z,9.30
2022-12-28T12:53:19.162Z,9.30
2022-12-28T12:56:30.273Z,9.33
2022-12-28T12:58:59.856Z,9.33
2022-12-28T13:01:44.393Z,9.28
2022-12-28T13:04:20.762Z,9.29
2022-12-28T13:06:49.346Z,9.19
2022-12-28T13:09:18.247Z,9.27
2022-12-28T13:11:46.147Z,9.20
2022-12-28T13:14:21.308Z,9.51
2022-12-28T13:16:51.130Z,9.66
2022-12-28T13:19:27.139Z,9.76
2022-12-28T13:21:54.760Z,9.82
2022-12-28T13:24:21.321Z,9.85
2022-12-28T13:26:48.240Z,9.86
2022-12-28T13:29:19.681Z,9.82
2022-12-28T13:31:49.889Z,9.84
2022-12-28T13:34:29.676Z,9.94
2022-12-28T13:36:58.579Z,9.95
2022-12-28T13:39:40.039Z,9.91
2022-12-28T13:42:28.253Z,9.96
2022-12-28T13:44:59.183Z,9.90
2022-12-28T13:47:25.743Z,9.80
2022-12-28T13:50:04.597Z,9.69
2022-12-28T13:52:39.968Z,9.56
2022-12-28T13:55:34.753Z,9.43
2022-12-28T13:58:05.752Z,9.47
2022-12-28T14:00:34.014Z,9.36
2022-12-28T14:03:00.726Z,9.33
2022-12-28T14:05:31.113Z,9.25
2022-12-28T14:07:59.332Z,9.15
2022-12-28T14:10:27.702Z,9.01
2022-12-28T14:12:56.253Z,8.94
2022-12-28T14:15:23.964Z,8.80
2022-12-28T14:17:52.168Z,8.68
2022-12-28T14:20:19.129Z,8.64
2022-12-28T14:22:47.023Z,8.59
2022-12-28T14:25:19.540Z,8.62
2022-12-28T14:27:57.008Z,8.56
2022-12-28T14:30:41.253Z,8.53
2022-12-28T14:33:24.903Z,8.52
2022-12-28T14:35:55.232Z,8.50
2022-12-28T14:38:25.503Z,8.53
2022-12-28T14:40:57.860Z,8.44
2022-12-28T14:43:36.187Z,8.37
2022-12-28T14:46:18.501Z,8.42
2022-12-28T14:48:45.637Z,8.46
2022-12-28T14:51:14.979Z,8.40
2022-12-28T14:53:42.240Z,8.35
2022-12-28T14:56:13.721Z,8.30
2022-12-28T14:58:52.185Z,8.22
2022-12-28T15:01:21.380Z,8.14
2022-12-28T15:03:55.716Z,8.01
2022-12-28T15:06:26.645Z,7.94
2022-12-28T15:08:54.774Z,7.90
2022-12-28T15:11:23.735Z,7.83
2022-12-28T15:13:50.616Z,7.78
2022-12-28T15:16:19.600Z,7.81
2022-12-28T15:18:46.581Z,7.77
2022-12-28T15:21:15.180Z,7.80
2022-12-28T15:23:41.787Z,7.84
2022-12-28T15:26:12.738Z,7.90
2022-12-28T15:28:39.626Z,7.89
2022-12-28T15:31:07.613Z,7.94
2022-12-28T15:33:35.360Z,8.00
2022-12-28T15:36:07.112Z,7.91
2022-12-28T15:38:36.112Z,7.98
2022-12-28T15:41:02.827Z,7.99
2022-12-28T15:43:29.587Z,7.99
2022-12-28T15:45:57.959Z,8.03
2022-12-28T15:48:24.738Z,8.03
2022-12-28T15:50:51.566Z,8.04
2022-12-28T15:53:18.232Z,8.01
2022-12-28T15:55:44.936Z,8.02
2022-12-28T15:58:11.522Z,8.09
2022-12-28T16:00:41.506Z,8.02
2022-12-28T16:03:10.952Z,8.00
2022-12-28T16:05:37.566Z,8.01
2022-12-28T16:08:04.310Z,7.99
2022-12-28T16:10:30.925Z,7.98
2022-12-28T16:12:57.569Z,7.98
2022-12-28T16:15:24.260Z,7.98
2022-12-28T16:17:57.333Z,7.96
2022-12-28T16:20:24.357Z,7.94
2022-12-28T16:22:51.211Z,7.91
2022-12-28T16:25:17.885Z,7.89
2022-12-28T16:27:44.523Z,7.89
2022-12-28T16:30:11.757Z,7.87
2022-12-28T16:32:38.358Z,7.83
2022-12-28T16:35:05.376Z,7.92
2022-12-28T16:37:31.949Z,7.88
2022-12-28T16:39:58.550Z,7.89
2022-12-28T16:42:25.191Z,7.72
2022-12-28T16:44:51.934Z,7.77
2022-12-28T16:47:18.498Z,7.76
2022-12-28T16:49:45.107Z,7.76
2022-12-28T16:52:11.675Z,7.73
2022-12-28T16:54:38.308Z,7.72
2022-12-28T16:57:04.905Z,7.61
2022-12-28T16:59:31.542Z,7.57
2022-12-28T17:01:59.373Z,7.43
2022-12-28T17:04:26.278Z,7.46
2022-12-28T17:06:53.333Z,7.38
2022-12-28T17:09:20.833Z,7.26
2022-12-28T17:11:48.532Z,7.32
2022-12-28T17:14:29.344Z,7.26
2022-12-28T17:17:02.102Z,7.17
2022-12-28T17:19:28.808Z,7.05
2022-12-28T17:21:55.508Z,6.99
2022-12-28T17:24:22.295Z,7.00
2022-12-28T17:26:48.942Z,7.00
2022-12-28T17:29:15.546Z,7.02
2022-12-28T17:31:43.845Z,7.05
2022-12-28T17:34:11.230Z,6.94
2022-12-28T17:36:37.849Z,6.91
2022-12-28T17:39:04.716Z,6.79
2022-12-28T17:41:31.665Z,6.95
2022-12-28T17:44:00.188Z,6.88
2022-12-28T17:46:29.774Z,6.92
2022-12-28T17:48:57.943Z,6.90
2022-12-28T17:51:25.644Z,6.85
2022-12-28T17:53:54.331Z,6.71
2022-12-28T17:56:21.162Z,6.87
2022-12-28T17:58:49.498Z,6.83
2022-12-28T18:01:16.290Z,6.79
2022-12-28T18:03:43.146Z,6.77
2022-12-28T18:06:09.920Z,6.76
2022-12-28T18:08:36.523Z,6.76
2022-12-28T18:11:03.491Z,6.82
2022-12-28T18:13:30.181Z,6.81
2022-12-28T18:15:57.244Z,6.78
2022-12-28T18:18:23.809Z,6.75
2022-12-28T18:21:08.194Z,6.81
2022-12-28T18:23:35.390Z,6.74
2022-12-28T18:26:08.360Z,6.79
2022-12-28T18:28:35.864Z,6.78
2022-12-28T18:31:04.191Z,6.82
2022-12-28T18:33:32.174Z,6.83
2022-12-28T18:36:01.705Z,6.77
2022-12-28T18:38:28.292Z,6.83
2022-12-28T18:40:56.812Z,6.74
2022-12-28T18:43:24.174Z,6.70
2022-12-28T18:45:56.604Z,6.87
2022-12-28T18:48:25.008Z,6.86
2022-12-28T18:50:56.470Z,6.82
2022-12-28T18:53:24.180Z,6.73
2022-12-28T18:56:04.176Z,6.77
2022-12-28T18:58:33.560Z,6.72
2022-12-28T19:01:32.850Z,6.69
2022-12-28T19:04:00.940Z,6.66
2022-12-28T19:06:27.949Z,6.70
2022-12-28T19:08:59.748Z,6.65
2022-12-28T19:11:27.036Z,6.67
2022-12-28T19:13:53.610Z,6.66
2022-12-28T19:16:27.006Z,6.58
2022-12-28T19:18:57.115Z,6.57
2022-12-28T19:21:29.520Z,6.50
2022-12-28T19:23:58.520Z,6.53
2022-12-28T19:26:25.590Z,6.54
2022-12-28T19:28:52.858Z,6.52
2022-12-28T19:31:19.593Z,6.49
2022-12-28T19:33:46.654Z,6.30
2022-12-28T19:36:13.469Z,6.23
2022-12-28T19:38:40.166Z,6.27
2022-12-28T19:41:09.219Z,6.36
2022-12-28T19:43:36.737Z,6.34
2022-12-28T19:46:11.727Z,6.35
2022-12-28T19:48:38.761Z,6.33
2022-12-28T19:51:05.578Z,6.47
2022-12-28T19:53:32.215Z,6.44
2022-12-28T19:56:12.131Z,6.46
2022-12-28T19:58:39.484Z,6.45
2022-12-28T20:01:15.108Z,6.56
2022-12-28T20:03:42.826Z,6.59
2022-12-28T20:06:14.899Z,6.53
2022-12-28T20:08:45.918Z,6.54
2022-12-28T20:11:12.616Z,6.56
2022-12-28T20:13:39.233Z,6.64
2022-12-28T20:16:06.436Z,6.58
2022-12-28T20:18:33.201Z,6.65
2022-12-28T20:21:21.396Z,6.63
2022-12-28T20:23:51.623Z,6.65
2022-12-28T20:26:19.989Z,6.71
2022-12-28T20:28:49.005Z,6.69
2022-12-28T20:31:15.824Z,6.72
2022-12-28T20:33:43.496Z,6.73
2022-12-28T20:36:13.370Z,6.62
2022-12-28T20:38:40.279Z,6.73
2022-12-28T20:41:31.318Z,6.76
2022-12-28T20:43:59.212Z,6.80
2022-12-28T20:46:25.920Z,6.81
2022-12-28T20:48:52.589Z,6.79
2022-12-28T20:51:19.160Z,6.83
2022-12-28T20:53:45.738Z,6.83
2022-12-28T20:56:12.433Z,6.88
2022-12-28T20:58:39.490Z,6.95
2022-12-28T21:01:07.947Z,6.99
2022-12-28T21:03:34.681Z,6.98
2022-12-28T21:06:01.564Z,6.95
2022-12-28T21:08:30.882Z,6.99
2022-12-28T21:10:58.218Z,7.01
2022-12-28T21:13:24.871Z,7.10
2022-12-28T21:15:51.621Z,7.03
2022-12-28T21:18:19.208Z,6.94
2022-12-28T21:20:57.243Z,6.91
2022-12-28T21:23:23.825Z,6.91
2022-12-28T21:25:50.452Z,6.92
2022-12-28T21:28:17.173Z,6.97
2022-12-28T21:30:43.786Z,6.97
2022-12-28T21:33:10.440Z,6.90
2022-12-28T21:35:37.026Z,6.86
2022-12-28T21:38:05.168Z,6.81
2022-12-28T21:40:31.846Z,6.77
2022-12-28T21:42:58.785Z,6.76
2022-12-28T21:45:25.420Z,6.80
2022-12-28T21:47:52.083Z,6.84
2022-12-28T21:50:18.715Z,6.81
2022-12-28T21:52:45.319Z,6.82
2022-12-28T21:55:30.437Z,6.78
2022-12-28T21:57:59.619Z,6.70
2022-12-28T22:00:45.215Z,6.67
2022-12-28T22:03:30.743Z,6.69
2022-12-28T22:06:06.167Z,6.72
2022-12-28T22:08:52.228Z,6.61
2022-12-28T22:11:37.934Z,6.63
2022-12-28T22:14:06.456Z,6.64
2022-12-28T22:16:34.759Z,6.61
2022-12-28T22:19:03.896Z,6.62
2022-12-28T22:21:31.278Z,6.64
2022-12-28T22:23:57.895Z,6.68
2022-12-28T22:26:24.517Z,6.62
2022-12-28T22:28:51.128Z,6.63
2022-12-28T22:31:17.799Z,6.69
2022-12-28T22:33:44.493Z,6.64
2022-12-28T22:36:13.569Z,6.69
2022-12-28T22:38:40.481Z,6.71
2022-12-28T22:41:07.884Z,6.61
2022-12-28T22:43:34.486Z,6.63
2022-12-28T22:46:06.009Z,6.62
2022-12-28T22:48:33.215Z,6.57
2022-12-28T22:51:08.412Z,6.54
2022-12-28T22:53:36.665Z,6.58
2022-12-28T22:56:06.014Z,6.62
2022-12-28T22:58:33.058Z,6.56
2022-12-28T23:01:26.200Z,6.55
2022-12-28T23:03:52.863Z,6.62
2022-12-28T23:06:20.473Z,6.59
2022-12-28T23:08:47.363Z,6.54
2022-12-28T23:11:34.851Z,6.57
2022-12-28T23:14:22.438Z,6.57
2022-12-28T23:16:49.568Z,6.64
2022-12-28T23:19:35.527Z,6.61
2022-12-28T23:22:22.992Z,6.58
2022-12-28T23:25:08.354Z,6.56
2022-12-28T23:27:40.766Z,6.55
2022-12-28T23:30:13.625Z,6.54
2022-12-28T23:32:40.714Z,6.55
2022-12-28T23:35:07.676Z,6.59
2022-12-28T23:37:34.343Z,6.60
2022-12-28T23:40:00.960Z,6.58
2022-12-28T23:42:27.640Z,6.61
2022-12-28T23:44:54.232Z,6.66
2022-12-28T23:47:20.860Z,6.66
2022-12-28T23:49:47.482Z,6.62
2022-12-28T23:52:14.098Z,6.66
2022-12-28T23:54:40.965Z,6.63
2022-12-28T23:57:07.717Z,6.67
2022-12-28T23:59:34.352Z,6.71
